createdAt,value
2018-12-20T00:04:48.808Z,3.60
2018-12-20T00:07:23.741Z,3.60
2018-12-20T00:10:04.610Z,3.60
2018-12-20T00:15:23.372Z,3.70
2018-12-20T00:17:56.855Z,3.60
2018-12-20T00:20:37.290Z,3.60
2018-12-20T00:34:06.577Z,3.40
2018-12-20T00:48:45.548Z,3.30
2018-12-20T00:51:19.279Z,3.30
2018-12-20T00:53:58.349Z,3.30
2018-12-20T00:56:31.977Z,3.30
2018-12-20T00:59:13.346Z,3.30
2018-12-20T01:01:46.945Z,3.30
2018-12-20T01:04:24.118Z,3.40
2018-12-20T01:06:57.885Z,3.40
2018-12-20T01:09:37.503Z,3.50
2018-12-20T01:12:11.260Z,3.50
2018-12-20T01:15:06.977Z,3.50
2018-12-20T01:17:40.574Z,3.50
2018-12-20T01:20:14.367Z,3.50
2018-12-20T01:22:47.941Z,3.50
2018-12-20T01:25:22.797Z,3.50
2018-12-20T01:27:56.434Z,3.50
2018-12-20T01:30:32.980Z,3.50
2018-12-20T01:33:06.681Z,3.50
2018-12-20T01:38:50.881Z,3.50
2018-12-20T01:41:24.611Z,3.50
2018-12-20T01:44:02.881Z,3.50
2018-12-20T01:46:36.548Z,3.50
2018-12-20T01:49:10.278Z,3.60
2018-12-20T01:51:44.035Z,3.60
2018-12-20T01:54:17.506Z,3.50
2018-12-20T01:56:52.982Z,3.60
2018-12-20T01:59:26.460Z,3.60
2018-12-20T02:02:05.873Z,3.60
2018-12-20T02:04:39.876Z,3.50
2018-12-20T02:07:13.666Z,3.50
2018-12-20T02:09:47.142Z,3.50
2018-12-20T02:12:21.917Z,3.50
2018-12-20T02:15:01.658Z,3.50
2018-12-20T02:17:33.058Z,3.50
2018-12-20T02:20:06.694Z,3.40
2018-12-20T02:22:41.190Z,3.40
2018-12-20T02:25:14.645Z,3.40
2018-12-20T02:27:49.101Z,3.50
2018-12-20T02:30:22.694Z,3.50
2018-12-20T02:33:03.677Z,3.50
2018-12-20T02:35:38.473Z,3.50
2018-12-20T02:44:02.268Z,3.60
2018-12-20T02:46:47.626Z,3.60
2018-12-20T02:49:22.056Z,3.60
2018-12-20T02:51:55.575Z,3.60
2018-12-20T02:54:34.779Z,3.50
2018-12-20T02:57:08.678Z,3.60
2018-12-20T02:59:50.020Z,3.60
2018-12-20T03:02:23.546Z,3.50
2018-12-20T03:05:02.739Z,3.60
2018-12-20T03:07:36.567Z,3.60
2018-12-20T03:10:14.008Z,3.50
2018-12-20T03:12:47.762Z,3.50
2018-12-20T03:15:22.538Z,3.60
2018-12-20T03:17:56.265Z,3.60
2018-12-20T03:20:37.837Z,3.60
2018-12-20T03:23:11.663Z,3.60
2018-12-20T03:25:46.477Z,3.60
2018-12-20T03:28:20.201Z,3.60
2018-12-20T03:30:54.273Z,3.60
2018-12-20T03:33:28.184Z,3.50
2018-12-20T03:36:13.106Z,3.60
2018-12-20T03:38:46.593Z,3.60
2018-12-20T03:41:25.494Z,3.60
2018-12-20T03:43:58.979Z,3.60
2018-12-20T03:46:34.634Z,3.60
2018-12-20T03:49:14.050Z,3.70
2018-12-20T03:57:14.659Z,3.60
2018-12-20T04:02:25.064Z,3.50
2018-12-20T04:23:27.082Z,3.30
2018-12-20T04:26:02.553Z,3.30
2018-12-20T04:28:36.038Z,3.20
2018-12-20T04:31:15.318Z,3.10
2018-12-20T04:33:49.175Z,3.10
2018-12-20T04:36:26.024Z,3.10
2018-12-20T04:39:17.504Z,3.10
2018-12-20T04:41:55.046Z,2.90
2018-12-20T05:19:53.595Z,3.00
2018-12-20T05:27:52.901Z,2.90
2018-12-20T05:30:32.695Z,2.90
2018-12-20T05:33:12.216Z,2.80
2018-12-20T05:46:28.097Z,2.80
2018-12-20T05:49:01.862Z,2.70
2018-12-20T05:51:37.545Z,2.70
2018-12-20T05:54:11.019Z,2.70
2018-12-20T05:56:49.238Z,2.70
2018-12-20T05:59:23.021Z,2.60
2018-12-20T06:02:00.474Z,2.60
2018-12-20T06:04:34.470Z,2.50
2018-12-20T06:07:10.219Z,2.50
2018-12-20T06:09:44.184Z,2.40
2018-12-20T06:12:23.139Z,2.50
2018-12-20T06:14:56.782Z,2.40
2018-12-20T06:17:30.355Z,2.40
2018-12-20T06:20:05.657Z,2.40
2018-12-20T06:22:39.403Z,2.40
2018-12-20T06:25:21.295Z,2.40
2018-12-20T06:27:55.412Z,2.40
2018-12-20T06:30:29.894Z,2.40
2018-12-20T06:33:03.376Z,2.50
2018-12-20T06:35:37.812Z,2.50
2018-12-20T06:38:11.384Z,2.60
2018-12-20T06:40:45.871Z,2.50
2018-12-20T06:43:19.362Z,2.50
2018-12-20T06:45:57.044Z,2.60
2018-12-20T06:48:30.538Z,2.50
2018-12-20T06:51:08.832Z,2.60
2018-12-20T06:53:42.319Z,2.60
2018-12-20T06:56:16.791Z,2.60
2018-12-20T06:58:50.279Z,2.60
2018-12-20T07:01:25.698Z,2.50
2018-12-20T07:03:59.184Z,2.50
2018-12-20T07:06:53.662Z,2.50
2018-12-20T07:09:27.440Z,2.50
2018-12-20T07:12:16.540Z,2.50
2018-12-20T07:14:50.142Z,2.40
2018-12-20T07:20:21.272Z,2.40
2018-12-20T07:22:54.715Z,2.40
2018-12-20T07:28:02.811Z,2.30
2018-12-20T07:30:36.269Z,2.30
2018-12-20T07:33:09.701Z,2.30
2018-12-20T07:35:43.159Z,2.30
2018-12-20T07:38:16.600Z,2.30
2018-12-20T07:40:50.065Z,2.30
2018-12-20T07:43:23.504Z,2.20
2018-12-20T07:48:59.562Z,2.20
2018-12-20T07:51:32.989Z,2.20
2018-12-20T07:54:06.444Z,2.20
2018-12-20T07:59:44.792Z,2.20
2018-12-20T08:02:18.220Z,2.20
2018-12-20T08:04:51.690Z,2.20
2018-12-20T08:07:25.167Z,2.20
2018-12-20T08:09:58.659Z,2.20
2018-12-20T08:12:32.088Z,2.30
2018-12-20T08:15:12.699Z,2.30
2018-12-20T08:17:46.217Z,2.40
2018-12-20T08:20:19.753Z,2.40
2018-12-20T08:22:53.182Z,2.40
2018-12-20T08:25:26.717Z,2.40
2018-12-20T08:28:00.148Z,2.40
2018-12-20T08:30:33.617Z,2.50
2018-12-20T08:33:07.049Z,2.50
2018-12-20T08:35:40.521Z,2.50
2018-12-20T08:38:13.952Z,2.50
2018-12-20T08:40:47.419Z,2.50
2018-12-20T08:43:20.856Z,2.60
2018-12-20T08:48:56.931Z,2.60
2018-12-20T08:51:30.358Z,2.60
2018-12-20T08:54:04.540Z,2.70
2018-12-20T08:56:37.968Z,2.70
2018-12-20T08:59:11.423Z,2.70
2018-12-20T09:01:44.892Z,2.70
2018-12-20T09:04:18.352Z,2.80
2018-12-20T09:06:51.788Z,2.80
2018-12-20T09:09:25.235Z,2.80
2018-12-20T09:11:58.663Z,2.80
2018-12-20T09:14:32.140Z,2.90
2018-12-20T09:17:05.573Z,2.90
2018-12-20T09:19:39.572Z,2.90
2018-12-20T09:22:13.071Z,3.00
2018-12-20T09:24:53.762Z,3.10
2018-12-20T09:27:27.244Z,3.10
2018-12-20T09:30:00.983Z,3.20
2018-12-20T09:32:42.215Z,3.20
2018-12-20T09:35:15.705Z,3.20
2018-12-20T09:37:51.134Z,3.30
2018-12-20T09:40:24.620Z,3.30
2018-12-20T09:43:08.500Z,3.40
2018-12-20T09:45:41.988Z,3.40
2018-12-20T09:48:17.392Z,3.40
2018-12-20T09:50:50.885Z,3.40
2018-12-20T09:53:33.642Z,3.40
2018-12-20T09:56:07.139Z,3.40
2018-12-20T09:58:44.293Z,3.50
2018-12-20T10:01:17.790Z,3.40
2018-12-20T10:03:54.483Z,3.50
2018-12-20T10:06:27.992Z,3.50
2018-12-20T10:09:04.868Z,3.50
2018-12-20T10:11:38.359Z,3.60
2018-12-20T10:14:13.798Z,3.50
2018-12-20T10:16:47.269Z,3.50
2018-12-20T10:19:30.347Z,3.50
2018-12-20T10:22:04.759Z,3.50
2018-12-20T10:24:38.238Z,3.50
2018-12-20T10:27:11.771Z,3.50
2018-12-20T10:29:45.251Z,3.60
2018-12-20T10:32:29.034Z,3.50
2018-12-20T10:35:02.524Z,3.50
2018-12-20T10:37:41.569Z,3.50
2018-12-20T10:40:15.058Z,3.50
2018-12-20T10:42:52.370Z,3.50
2018-12-20T10:45:25.831Z,3.50
2018-12-20T10:48:05.801Z,3.50
2018-12-20T10:50:39.267Z,3.50
2018-12-20T10:53:18.522Z,3.50
2018-12-20T10:55:51.989Z,3.50
2018-12-20T10:58:29.459Z,3.60
2018-12-20T11:01:08.307Z,3.60
2018-12-20T11:03:45.898Z,3.70
2018-12-20T11:06:24.831Z,3.70
2018-12-20T11:09:04.081Z,3.60
2018-12-20T11:11:42.871Z,3.60
2018-12-20T11:14:25.305Z,3.60
2018-12-20T11:19:58.419Z,3.70
2018-12-20T11:22:49.400Z,3.70
2018-12-20T11:25:22.884Z,3.70
2018-12-20T11:28:01.173Z,3.70
2018-12-20T11:30:34.707Z,3.70
2018-12-20T11:33:11.941Z,3.70
2018-12-20T11:35:46.158Z,3.70
2018-12-20T11:38:24.253Z,3.70
2018-12-20T11:40:57.755Z,3.70
2018-12-20T11:43:33.399Z,3.70
2018-12-20T11:46:06.982Z,3.80
2018-12-20T11:48:41.491Z,3.80
2018-12-20T11:51:15.196Z,3.80
2018-12-20T11:53:52.416Z,3.80
2018-12-20T11:56:25.902Z,3.80
2018-12-20T11:59:06.129Z,3.80
2018-12-20T12:01:39.621Z,3.80
2018-12-20T12:07:15.192Z,3.70
2018-12-20T12:09:48.624Z,3.80
2018-12-20T12:12:22.074Z,3.80
2018-12-20T12:14:55.513Z,3.80
2018-12-20T12:17:28.973Z,3.80
2018-12-20T12:20:02.485Z,3.80
2018-12-20T12:22:35.949Z,3.70
2018-12-20T12:25:09.395Z,3.80
2018-12-20T12:27:42.859Z,3.80
2018-12-20T12:30:16.293Z,3.80
2018-12-20T12:32:49.739Z,3.80
2018-12-20T12:35:23.175Z,3.80
2018-12-20T12:37:56.626Z,3.80
2018-12-20T12:40:30.050Z,3.90
2018-12-20T12:43:03.501Z,3.90
2018-12-20T12:45:36.961Z,3.90
2018-12-20T12:48:10.434Z,3.90
2018-12-20T12:50:43.868Z,3.90
2018-12-20T12:53:17.317Z,3.90
2018-12-20T12:55:50.756Z,4.00
2018-12-20T12:58:24.220Z,4.00
2018-12-20T13:00:57.648Z,4.10
2018-12-20T13:03:31.107Z,4.10
2018-12-20T13:06:04.538Z,4.10
2018-12-20T13:08:37.999Z,4.10
2018-12-20T13:11:11.434Z,4.10
2018-12-20T13:13:45.294Z,4.20
2018-12-20T13:19:28.033Z,4.20
2018-12-20T13:22:01.466Z,4.30
2018-12-20T13:24:34.913Z,4.30
2018-12-20T13:27:08.345Z,4.30
2018-12-20T13:29:41.826Z,4.40
2018-12-20T13:32:15.268Z,4.30
2018-12-20T13:34:48.730Z,4.30
2018-12-20T14:05:57.984Z,4.30
2018-12-20T14:08:31.817Z,4.30
2018-12-20T14:11:05.310Z,4.30
2018-12-20T14:13:39.015Z,4.30
2018-12-20T14:16:12.523Z,4.30
2018-12-20T14:22:09.010Z,4.30
2018-12-20T14:24:46.286Z,4.30
2018-12-20T14:27:21.514Z,4.30
2018-12-20T14:29:58.589Z,4.30
2018-12-20T14:32:32.089Z,4.20
2018-12-20T14:35:10.390Z,4.20
2018-12-20T14:37:43.873Z,4.20
2018-12-20T14:40:22.188Z,4.20
2018-12-20T14:42:55.664Z,4.20
2018-12-20T14:45:29.390Z,4.20
2018-12-20T14:48:02.879Z,4.20
2018-12-20T14:50:36.480Z,4.20
2018-12-20T14:53:09.979Z,4.20
2018-12-20T14:55:43.701Z,4.20
2018-12-20T14:58:17.245Z,4.20
2018-12-20T15:00:50.908Z,4.20
2018-12-20T15:03:24.398Z,4.20
2018-12-20T15:05:59.082Z,4.20
2018-12-20T15:08:32.967Z,4.20
2018-12-20T15:11:06.847Z,4.30
2018-12-20T15:13:40.332Z,4.30
2018-12-20T15:16:13.832Z,4.30
2018-12-20T15:18:47.889Z,4.30
2018-12-20T15:21:21.737Z,4.30
2018-12-20T15:23:55.213Z,4.30
2018-12-20T15:26:28.674Z,4.30
2018-12-20T15:29:02.587Z,4.30
2018-12-20T15:31:36.035Z,4.30
2018-12-20T15:34:09.775Z,4.30
2018-12-20T15:36:43.263Z,4.30
2018-12-20T15:39:16.883Z,4.30
2018-12-20T15:41:50.381Z,4.30
2018-12-20T15:44:24.712Z,4.30
2018-12-20T15:46:58.158Z,4.30
2018-12-20T15:49:31.884Z,4.30
2018-12-20T15:52:05.338Z,4.30
2018-12-20T15:54:39.099Z,4.30
2018-12-20T15:57:12.560Z,4.30
2018-12-20T15:59:46.302Z,4.20
2018-12-20T16:02:20.394Z,4.20
2018-12-20T16:05:05.939Z,4.30
2018-12-20T16:07:39.390Z,4.20
2018-12-20T16:10:13.049Z,4.20
2018-12-20T16:12:46.509Z,4.30
2018-12-20T16:15:32.937Z,4.30
2018-12-20T16:18:06.421Z,4.30
2018-12-20T16:20:54.753Z,4.30
2018-12-20T16:23:28.224Z,4.30
2018-12-20T16:26:01.761Z,4.30
2018-12-20T16:28:36.366Z,4.30
2018-12-20T16:31:09.856Z,4.30
2018-12-20T16:33:43.408Z,4.30
2018-12-20T16:36:16.918Z,4.30
2018-12-20T16:38:52.934Z,4.30
2018-12-20T16:41:26.623Z,4.30
2018-12-20T16:44:02.142Z,4.30
2018-12-20T16:46:35.630Z,4.30
2018-12-20T16:49:13.734Z,4.30
2018-12-20T16:51:47.751Z,4.30
2018-12-20T16:54:22.275Z,4.30
2018-12-20T16:56:55.841Z,4.30
2018-12-20T16:59:50.084Z,4.30
2018-12-20T17:02:23.563Z,4.30
2018-12-20T17:20:26.854Z,4.20
2018-12-20T17:23:20.332Z,4.20
2018-12-20T17:26:12.572Z,4.20
2018-12-20T17:28:46.066Z,4.20
2018-12-20T17:31:39.296Z,4.20
2018-12-20T17:34:13.032Z,4.20
2018-12-20T17:36:54.384Z,4.20
2018-12-20T17:39:27.860Z,4.20
2018-12-20T17:42:07.289Z,4.20
2018-12-20T17:44:40.719Z,4.20
2018-12-20T17:47:14.170Z,4.20
2018-12-20T17:49:48.529Z,4.20
2018-12-20T17:52:22.723Z,4.20
2018-12-20T17:54:56.156Z,4.20
2018-12-20T17:57:29.608Z,4.20
2018-12-20T18:00:03.056Z,4.20
2018-12-20T18:02:36.562Z,4.20
2018-12-20T18:08:04.813Z,4.20
2018-12-20T18:19:26.273Z,4.10
2018-12-20T18:22:19.917Z,4.10
2018-12-20T18:35:53.366Z,4.10
2018-12-20T18:41:06.035Z,4.10
2018-12-20T18:43:47.320Z,4.10
2018-12-20T18:52:31.263Z,4.20
2018-12-20T18:55:06.212Z,4.20
2018-12-20T18:57:39.696Z,4.20
2018-12-20T19:00:16.492Z,4.20
2018-12-20T19:02:49.978Z,4.20
2018-12-20T19:05:23.456Z,4.20
2018-12-20T19:07:56.957Z,4.20
2018-12-20T19:19:00.527Z,4.30
2018-12-20T19:21:43.331Z,4.30
2018-12-20T19:24:16.838Z,4.30
2018-12-20T19:26:52.263Z,4.30
2018-12-20T19:29:25.839Z,4.20
2018-12-20T19:31:59.372Z,4.20
2018-12-20T19:34:49.137Z,4.20
2018-12-20T19:37:22.638Z,4.20
2018-12-20T19:40:02.253Z,4.20
2018-12-20T19:42:35.722Z,4.20
2018-12-20T19:45:19.046Z,4.10
2018-12-20T19:47:52.540Z,4.10
2018-12-20T19:50:29.172Z,4.10
2018-12-20T19:53:02.662Z,4.10
2018-12-20T19:55:43.131Z,4.00
2018-12-20T19:58:16.983Z,4.00
2018-12-20T20:01:00.683Z,4.00
2018-12-20T20:03:34.169Z,4.10
2018-12-20T20:06:14.837Z,4.10
2018-12-20T20:22:16.734Z,4.40
2018-12-20T20:30:18.187Z,4.40
2018-12-20T20:40:54.559Z,4.30
2018-12-20T20:48:43.897Z,4.20
2018-12-20T20:51:30.502Z,4.20
2018-12-20T20:54:04.007Z,4.20
2018-12-20T20:56:43.486Z,4.20
2018-12-20T20:59:18.186Z,4.30
2018-12-20T21:01:55.161Z,4.30
2018-12-20T21:18:31.132Z,4.30
2018-12-20T21:21:04.599Z,4.30
2018-12-20T21:23:38.030Z,4.30
2018-12-20T21:26:11.489Z,4.40
2018-12-20T21:28:44.943Z,4.40
2018-12-20T21:31:18.400Z,4.40
2018-12-20T21:33:51.828Z,4.40
2018-12-20T21:36:32.833Z,4.40
2018-12-20T21:39:06.942Z,4.40
2018-12-20T21:41:40.402Z,4.40
2018-12-20T21:44:13.837Z,4.40
2018-12-20T21:46:47.293Z,4.40
2018-12-20T21:49:20.739Z,4.50
2018-12-20T21:52:06.644Z,4.50
2018-12-20T21:54:46.817Z,4.60
2018-12-20T21:57:34.566Z,4.50
2018-12-20T22:00:09.657Z,4.50
2018-12-20T22:08:08.940Z,4.50
2018-12-20T22:10:47.861Z,4.50
2018-12-20T22:13:37.949Z,4.60
2018-12-20T22:19:14.252Z,4.60
2018-12-20T22:21:49.786Z,4.60
2018-12-20T22:24:23.312Z,4.50
2018-12-20T22:27:06.665Z,4.50
2018-12-20T22:29:40.530Z,4.40
2018-12-20T22:32:20.722Z,4.40
2018-12-20T22:34:54.202Z,4.30
2018-12-20T22:37:38.883Z,4.30
2018-12-20T22:40:12.406Z,4.20
2018-12-20T22:42:49.516Z,4.30
2018-12-20T22:45:23.008Z,4.20
2018-12-20T22:48:02.281Z,4.20
2018-12-20T22:50:35.780Z,4.20
2018-12-20T22:53:23.074Z,4.20
2018-12-20T22:56:04.864Z,4.10
2018-12-20T22:58:40.923Z,4.00
2018-12-20T23:01:15.473Z,3.90
2018-12-20T23:03:48.960Z,4.00
2018-12-20T23:06:26.960Z,3.90
2018-12-20T23:09:00.432Z,3.80
2018-12-20T23:11:34.978Z,3.80
2018-12-20T23:14:08.461Z,3.90
2018-12-20T23:16:53.856Z,3.90
2018-12-20T23:19:27.778Z,3.90
2018-12-20T23:22:09.102Z,4.00
2018-12-20T23:24:42.589Z,4.10
2018-12-20T23:27:32.310Z,4.10
2018-12-20T23:30:06.304Z,4.20
2018-12-20T23:32:39.810Z,4.30
2018-12-20T23:35:15.227Z,4.30
2018-12-20T23:37:48.727Z,4.30
2018-12-20T23:40:33.329Z,4.30
2018-12-20T23:43:06.819Z,4.30
2018-12-20T23:45:47.820Z,4.30
2018-12-20T23:48:21.315Z,4.40
2018-12-20T23:51:00.958Z,4.40
2018-12-20T23:53:34.520Z,4.30
2018-12-20T23:56:17.761Z,4.40
2018-12-20T23:58:51.256Z,4.40
